Time;durP1;ratioP1;P1;durP2;ratioP2;P2;SDS_P1;SDS_P2;PMS_P1;PMS_P2;Temp;Humidity;BMP_temperature;BMP_pressure;BME280_temperature;BME280_humidity;BME280_pressure;Samples;Min_cycle;Max_cycle;Signal;HPM_P1;HPM_P2
2022/11/26 00:01:22;;;;;;;;;;;6.60;99.90;;;;;;5067484;28;20089;-69
2022/11/26 00:03:50;;;;;;;;;;;6.60;99.90;;;;;;5059037;28;20288;-69
2022/11/26 00:06:23;;;;;;;;;;;6.60;99.90;;;;;;5055309;28;19921;-69
2022/11/26 00:08:49;;;;;;;;;;;6.60;99.90;;;;;;5047444;28;19924;-68
2022/11/26 00:11:16;;;;;;;;;;;6.50;99.90;;;;;;5047330;28;19959;-69
2022/11/26 00:13:43;;;;;;;;;;;6.40;99.90;;;;;;5046949;28;20208;-68
2022/11/26 00:16:12;;;;;;;;;;;6.50;99.90;;;;;;5046722;28;19988;-69
2022/11/26 00:18:38;;;;;;;;;;;6.40;99.90;;;;;;5060314;28;20227;-69
2022/11/26 00:21:06;;;;;;;;;;;6.40;99.90;;;;;;5058793;28;19966;-68
2022/11/26 00:23:34;;;;;;;;;;;6.40;99.90;;;;;;5066550;28;19996;-69
2022/11/26 00:26:02;;;;;;;;;;;6.30;99.90;;;;;;5066673;28;19952;-69
2022/11/26 00:28:29;;;;;;;;;;;6.30;99.90;;;;;;5066976;28;20004;-69
2022/11/26 00:30:58;;;;;;;;;;;6.30;99.90;;;;;;5066877;28;20043;-69
2022/11/26 00:33:25;;;;;;;;;;;6.40;99.90;;;;;;5065989;28;19959;-69
2022/11/26 00:35:53;;;;;;;;;;;6.30;99.90;;;;;;5057911;28;20216;-68
2022/11/26 00:38:21;;;;;;;;;;;6.40;99.90;;;;;;5066541;28;19992;-69
2022/11/26 00:40:49;;;;;;;;;;;6.30;99.90;;;;;;5066675;28;19952;-68
2022/11/26 00:43:17;;;;;;;;;;;6.30;99.90;;;;;;5066392;28;19992;-69
2022/11/26 00:45:43;;;;;;;;;;;6.30;99.90;;;;;;5066034;28;19952;-69
2022/11/26 00:48:10;;;;;;;;;;;6.30;99.90;;;;;;5066088;28;19927;-68
2022/11/26 00:50:38;;;;;;;;;;;6.20;99.90;;;;;;5058185;28;19949;-68
2022/11/26 00:53:05;;;;;;;;;;;6.20;99.90;;;;;;5066433;28;19956;-69
2022/11/26 00:55:33;;;;;;;;;;;6.20;99.90;;;;;;5066133;28;20157;-69
2022/11/26 00:58:01;;;;;;;;;;;6.20;99.90;;;;;;5059815;28;19952;-68
2022/11/26 01:00:29;;;;;;;;;;;6.20;99.90;;;;;;5046412;28;19921;-68
2022/11/26 01:02:56;;;;;;;;;;;6.20;99.90;;;;;;5053779;28;19988;-68
2022/11/26 01:05:24;;;;;;;;;;;6.20;99.90;;;;;;5057649;28;19983;-68
2022/11/26 01:07:51;;;;;;;;;;;6.20;99.90;;;;;;5066244;28;19988;-68
2022/11/26 01:10:18;;;;;;;;;;;6.20;99.90;;;;;;5065174;28;20231;-69
2022/11/26 01:12:46;;;;;;;;;;;6.20;99.90;;;;;;5050426;28;20052;-69
2022/11/26 01:15:14;;;;;;;;;;;6.10;99.90;;;;;;5045672;28;19993;-69
2022/11/26 01:17:41;;;;;;;;;;;6.10;99.90;;;;;;5065271;28;19987;-69
2022/11/26 01:20:15;;;;;;;;;;;6.20;99.90;;;;;;5057559;28;19963;-69
2022/11/26 01:22:48;;;;;;;;;;;6.20;99.90;;;;;;5065503;28;19952;-68
2022/11/26 01:25:15;;;;;;;;;;;6.20;99.90;;;;;;5064742;28;20000;-69
2022/11/26 01:27:42;;;;;;;;;;;6.20;99.90;;;;;;5065932;28;19988;-68
2022/11/26 01:30:12;;;;;;;;;;;6.10;99.90;;;;;;5065717;28;19987;-68
2022/11/26 01:32:40;;;;;;;;;;;6.10;99.90;;;;;;5065344;28;19988;-69
2022/11/26 01:35:07;;;;;;;;;;;6.20;99.90;;;;;;5057024;28;20145;-69
2022/11/26 01:37:34;;;;;;;;;;;6.10;99.90;;;;;;5064016;28;19959;-68
2022/11/26 01:40:01;;;;;;;;;;;6.20;99.90;;;;;;5065276;28;19962;-69
2022/11/26 01:42:34;;;;;;;;;;;6.10;99.90;;;;;;5065424;28;19956;-68
2022/11/26 01:45:01;;;;;;;;;;;6.20;99.90;;;;;;5061953;28;19979;-69
2022/11/26 01:47:29;;;;;;;;;;;6.20;99.90;;;;;;5065344;28;19927;-68
2022/11/26 01:50:14;;;;;;;;;;;6.20;99.90;;;;;;5048554;28;19963;-69
2022/11/26 01:52:42;;;;;;;;;;;6.20;99.90;;;;;;5059913;28;20167;-68
2022/11/26 01:55:13;;;;;;;;;;;6.10;99.90;;;;;;5064578;28;19984;-69
2022/11/26 01:57:40;;;;;;;;;;;6.20;99.90;;;;;;5044997;28;19957;-68
2022/11/26 02:00:07;;;;;;;;;;;6.20;99.90;;;;;;5045114;28;20169;-68
2022/11/26 02:02:34;;;;;;;;;;;6.20;99.90;;;;;;5049631;28;19929;-69
2022/11/26 02:05:03;;;;;;;;;;;6.20;99.90;;;;;;5055345;28;20240;-69
2022/11/26 02:07:29;;;;;;;;;;;6.20;99.90;;;;;;5064565;28;19983;-69
2022/11/26 02:09:57;;;;;;;;;;;6.20;99.90;;;;;;5065006;28;19943;-69
2022/11/26 02:12:24;;;;;;;;;;;6.20;99.90;;;;;;5064917;28;19997;-69
2022/11/26 02:14:51;;;;;;;;;;;6.20;99.90;;;;;;5064183;28;19996;-69
2022/11/26 02:17:20;;;;;;;;;;;6.20;99.90;;;;;;5064577;28;19963;-69
2022/11/26 02:20:11;;;;;;;;;;;6.20;99.90;;;;;;5057516;28;19984;-69
2022/11/26 02:22:55;;;;;;;;;;;6.20;99.90;;;;;;5042750;28;19971;-69
2022/11/26 02:25:32;;;;;;;;;;;6.30;99.90;;;;;;5043484;28;19992;-69
2022/11/26 02:28:08;;;;;;;;;;;6.20;99.90;;;;;;5044640;28;19921;-69
2022/11/26 02:30:37;;;;;;;;;;;6.20;99.90;;;;;;5044386;28;19963;-68
2022/11/26 02:33:06;;;;;;;;;;;6.20;99.90;;;;;;5055419;28;19980;-69
2022/11/26 02:35:37;;;;;;;;;;;6.10;99.90;;;;;;5051923;28;19984;-69
2022/11/26 02:38:06;;;;;;;;;;;6.10;99.90;;;;;;5044058;28;20170;-69
2022/11/26 02:40:32;;;;;;;;;;;6.20;99.90;;;;;;5044026;28;20229;-69
2022/11/26 02:42:59;;;;;;;;;;;6.10;99.90;;;;;;5044375;28;19988;-69
2022/11/26 02:45:28;;;;;;;;;;;6.10;99.90;;;;;;5043368;28;19988;-69
2022/11/26 02:47:57;;;;;;;;;;;6.20;99.90;;;;;;5044347;28;19921;-69
2022/11/26 02:50:26;;;;;;;;;;;6.20;99.90;;;;;;5055888;28;19952;-69
2022/11/26 02:52:54;;;;;;;;;;;6.20;99.90;;;;;;5064125;28;19951;-69
2022/11/26 02:55:25;;;;;;;;;;;6.20;99.90;;;;;;5063184;28;19992;-69
2022/11/26 02:57:52;;;;;;;;;;;6.20;99.90;;;;;;5063725;28;20263;-69
2022/11/26 03:00:19;;;;;;;;;;;6.20;99.90;;;;;;5063705;28;20220;-68
2022/11/26 03:02:47;;;;;;;;;;;6.20;99.90;;;;;;5057706;28;19953;-69
2022/11/26 03:05:16;;;;;;;;;;;6.20;99.90;;;;;;5054820;28;20001;-69
2022/11/26 03:07:43;;;;;;;;;;;6.20;99.90;;;;;;5063959;28;19928;-69
2022/11/26 03:10:10;;;;;;;;;;;6.20;99.90;;;;;;5063636;28;19948;-68
2022/11/26 03:12:37;;;;;;;;;;;6.10;99.90;;;;;;5063502;28;20259;-69
2022/11/26 03:15:04;;;;;;;;;;;6.10;99.90;;;;;;5063220;28;19936;-69
2022/11/26 03:17:30;;;;;;;;;;;6.10;99.90;;;;;;5058891;28;20411;-69
2022/11/26 03:19:57;;;;;;;;;;;6.10;99.90;;;;;;5054119;28;20251;-69
2022/11/26 03:22:25;;;;;;;;;;;6.10;99.90;;;;;;5063777;28;19984;-69
2022/11/26 03:24:51;;;;;;;;;;;6.10;99.90;;;;;;5063073;28;19952;-69
2022/11/26 03:27:18;;;;;;;;;;;6.00;99.90;;;;;;5056532;28;19989;-68
2022/11/26 03:29:45;;;;;;;;;;;6.00;99.90;;;;;;5043835;28;20008;-68
2022/11/26 03:32:11;;;;;;;;;;;6.00;99.90;;;;;;5043856;28;20108;-69
2022/11/26 03:34:38;;;;;;;;;;;6.00;99.90;;;;;;5050651;28;19959;-69
2022/11/26 03:37:04;;;;;;;;;;;6.00;99.90;;;;;;5061446;28;19988;-69
2022/11/26 03:39:32;;;;;;;;;;;6.00;99.90;;;;;;5063415;28;20264;-68
2022/11/26 03:41:59;;;;;;;;;;;6.10;99.90;;;;;;5063531;28;19948;-69
2022/11/26 03:44:26;;;;;;;;;;;6.00;99.90;;;;;;5063330;28;19995;-69
2022/11/26 03:46:53;;;;;;;;;;;6.10;99.90;;;;;;5060125;28;19956;-68
2022/11/26 03:49:20;;;;;;;;;;;6.10;99.90;;;;;;5055113;28;19987;-69
2022/11/26 03:51:46;;;;;;;;;;;6.00;99.90;;;;;;5063263;28;19984;-68
2022/11/26 03:54:13;;;;;;;;;;;6.00;99.90;;;;;;5060764;28;20000;-69
2022/11/26 03:56:41;;;;;;;;;;;6.00;99.90;;;;;;5062597;28;19991;-69
2022/11/26 03:59:08;;;;;;;;;;;6.00;99.90;;;;;;5044643;28;20232;-69
2022/11/26 04:01:35;;;;;;;;;;;6.00;99.90;;;;;;5043174;28;19967;-69
2022/11/26 04:04:01;;;;;;;;;;;6.00;99.90;;;;;;5052341;28;19928;-69
2022/11/26 04:06:28;;;;;;;;;;;6.00;99.90;;;;;;5049698;28;19956;-69
2022/11/26 04:08:54;;;;;;;;;;;6.10;99.90;;;;;;5043339;28;19991;-69
2022/11/26 04:11:21;;;;;;;;;;;6.10;99.90;;;;;;5043548;28;19921;-69
2022/11/26 04:13:49;;;;;;;;;;;6.00;99.90;;;;;;5043402;28;19984;-69
2022/11/26 04:16:16;;;;;;;;;;;6.10;99.90;;;;;;5050886;28;20145;-69
2022/11/26 04:18:42;;;;;;;;;;;6.10;99.90;;;;;;5042871;28;19949;-69
2022/11/26 04:21:09;;;;;;;;;;;6.10;99.90;;;;;;5051092;28;19984;-69
2022/11/26 04:23:36;;;;;;;;;;;6.10;99.90;;;;;;5043217;28;19988;-68
2022/11/26 04:26:03;;;;;;;;;;;6.10;99.90;;;;;;5042658;28;19992;-69
2022/11/26 04:28:29;;;;;;;;;;;6.10;99.90;;;;;;5043370;28;19995;-68
2022/11/26 04:30:57;;;;;;;;;;;6.10;99.90;;;;;;5043210;28;19956;-69
2022/11/26 04:33:25;;;;;;;;;;;6.10;99.90;;;;;;5046840;28;20251;-69
2022/11/26 04:35:52;;;;;;;;;;;6.10;99.90;;;;;;5053609;28;20553;-69
2022/11/26 04:38:19;;;;;;;;;;;6.10;99.90;;;;;;5063069;28;19987;-69
2022/11/26 04:40:46;;;;;;;;;;;6.10;99.90;;;;;;5063025;28;19959;-69
2022/11/26 04:43:13;;;;;;;;;;;6.10;99.90;;;;;;5063030;28;20145;-69
2022/11/26 04:45:39;;;;;;;;;;;6.10;99.90;;;;;;5063690;28;19995;-69
2022/11/26 04:48:08;;;;;;;;;;;6.00;99.90;;;;;;5090074;22;19984;-91
2022/11/26 04:50:34;;;;;;;;;;;6.00;99.90;;;;;;5094427;28;19912;-91
2022/11/26 04:53:01;;;;;;;;;;;6.00;99.90;;;;;;5098763;28;19951;-91
2022/11/26 04:55:28;;;;;;;;;;;6.00;99.90;;;;;;5100770;28;19933;-91
2022/11/26 04:57:55;;;;;;;;;;;6.00;99.90;;;;;;5099395;28;19944;-92
2022/11/26 05:00:21;;;;;;;;;;;6.00;99.90;;;;;;5100145;28;19940;-92
2022/11/26 05:02:48;;;;;;;;;;;5.90;99.90;;;;;;5092768;28;19913;-91
2022/11/26 05:05:16;;;;;;;;;;;6.00;99.90;;;;;;5098566;28;19959;-91
2022/11/26 05:07:43;;;;;;;;;;;6.00;99.90;;;;;;5099543;28;19908;-92
2022/11/26 05:10:10;;;;;;;;;;;6.00;99.90;;;;;;5098718;28;19920;-91
2022/11/26 05:12:37;;;;;;;;;;;6.00;99.90;;;;;;5107413;28;19920;-91
2022/11/26 05:15:04;;;;;;;;;;;5.90;99.90;;;;;;5099372;28;19932;-92
2022/11/26 05:17:31;;;;;;;;;;;5.90;99.90;;;;;;5099570;28;19908;-91
2022/11/26 05:19:58;;;;;;;;;;;5.90;99.90;;;;;;5096578;28;19939;-91
2022/11/26 05:22:26;;;;;;;;;;;5.90;99.90;;;;;;5099527;28;19914;-91
2022/11/26 05:24:53;;;;;;;;;;;5.90;99.90;;;;;;5099121;28;19948;-91
2022/11/26 05:27:19;;;;;;;;;;;5.90;99.90;;;;;;5099372;28;19959;-92
2022/11/26 05:29:46;;;;;;;;;;;5.90;99.90;;;;;;5099962;28;19940;-91
2022/11/26 05:32:13;;;;;;;;;;;6.10;99.90;;;;;;5099948;28;19948;-91
2022/11/26 05:34:40;;;;;;;;;;;5.80;99.90;;;;;;5096284;28;19912;-91
2022/11/26 05:37:07;;;;;;;;;;;5.90;99.90;;;;;;5099077;28;19932;-91
2022/11/26 05:39:35;;;;;;;;;;;5.80;99.90;;;;;;5099878;28;19947;-91
2022/11/26 05:42:01;;;;;;;;;;;5.90;99.90;;;;;;5100148;28;19932;-91
2022/11/26 05:44:28;;;;;;;;;;;5.90;99.90;;;;;;5099892;28;19952;-91
2022/11/26 05:46:55;;;;;;;;;;;5.80;99.90;;;;;;5099438;28;19921;-91
2022/11/26 05:49:22;;;;;;;;;;;5.80;99.90;;;;;;5098667;28;19908;-91
2022/11/26 05:51:48;;;;;;;;;;;5.80;99.90;;;;;;5099129;28;19909;-91
2022/11/26 05:54:15;;;;;;;;;;;5.80;99.90;;;;;;5099476;28;19980;-90
2022/11/26 05:56:43;;;;;;;;;;;5.80;99.90;;;;;;5098721;28;19951;-91
2022/11/26 05:59:11;;;;;;;;;;;6.00;99.90;;;;;;5091353;28;19908;-91
2022/11/26 06:01:37;;;;;;;;;;;5.90;99.90;;;;;;5099359;28;19920;-90
2022/11/26 06:04:04;;;;;;;;;;;5.80;99.90;;;;;;5094300;28;19908;-91
2022/11/26 06:06:31;;;;;;;;;;;5.80;99.90;;;;;;5091878;28;19956;-90
2022/11/26 06:08:58;;;;;;;;;;;5.80;99.90;;;;;;5098630;28;19912;-92
2022/11/26 06:11:24;;;;;;;;;;;5.70;99.90;;;;;;5099156;28;19908;-91
2022/11/26 06:13:53;;;;;;;;;;;5.70;99.90;;;;;;5099268;28;19943;-92
2022/11/26 06:16:19;;;;;;;;;;;5.80;99.90;;;;;;5096587;28;20176;-90
2022/11/26 06:18:46;;;;;;;;;;;5.70;99.90;;;;;;5098479;28;19988;-91
2022/11/26 06:21:13;;;;;;;;;;;5.70;99.90;;;;;;5098866;28;19943;-92
2022/11/26 06:23:40;;;;;;;;;;;5.70;99.90;;;;;;5099198;28;19912;-91
2022/11/26 06:26:07;;;;;;;;;;;5.60;99.90;;;;;;5098573;28;19920;-91
2022/11/26 06:28:34;;;;;;;;;;;5.90;99.90;;;;;;5098506;28;19912;-92
2022/11/26 06:31:02;;;;;;;;;;;5.60;99.90;;;;;;5098898;28;20202;-92
2022/11/26 06:33:29;;;;;;;;;;;5.50;99.90;;;;;;5097687;28;19955;-91
2022/11/26 06:35:58;;;;;;;;;;;5.50;99.90;;;;;;5097747;28;19909;-92
2022/11/26 06:38:24;;;;;;;;;;;5.50;99.90;;;;;;5097945;28;19936;-91
2022/11/26 06:40:57;;;;;;;;;;;5.50;99.90;;;;;;5097897;28;19912;-92
2022/11/26 06:43:24;;;;;;;;;;;5.50;99.90;;;;;;5095174;28;19928;-92
2022/11/26 06:45:50;;;;;;;;;;;5.60;99.90;;;;;;5097638;28;19913;-92
2022/11/26 06:48:18;;;;;;;;;;;5.60;99.90;;;;;;5094881;28;19948;-92
2022/11/26 06:50:45;;;;;;;;;;;5.60;99.90;;;;;;5091658;28;19985;-91
2022/11/26 06:53:12;;;;;;;;;;;5.60;99.90;;;;;;5097220;28;19908;-91
2022/11/26 06:55:39;;;;;;;;;;;5.60;99.90;;;;;;5097952;28;19920;-92
2022/11/26 06:58:05;;;;;;;;;;;5.60;99.90;;;;;;5098014;28;19916;-92
2022/11/26 07:00:32;;;;;;;;;;;5.70;99.90;;;;;;5097937;28;19912;-92
2022/11/26 07:02:59;;;;;;;;;;;5.70;99.90;;;;;;5097741;28;19912;-93
2022/11/26 07:05:27;;;;;;;;;;;5.40;99.90;;;;;;5097723;28;19936;-92
2022/11/26 07:07:54;;;;;;;;;;;5.60;99.90;;;;;;5097492;28;19912;-92
2022/11/26 07:10:20;;;;;;;;;;;5.60;99.90;;;;;;5098053;28;19916;-91
2022/11/26 07:12:47;;;;;;;;;;;5.80;99.90;;;;;;5098266;28;19920;-91
2022/11/26 07:15:14;;;;;;;;;;;5.50;99.90;;;;;;5097267;28;20006;-91
2022/11/26 07:17:40;;;;;;;;;;;5.50;99.90;;;;;;5096557;28;19909;-91
2022/11/26 07:20:08;;;;;;;;;;;5.50;99.90;;;;;;5096136;28;19940;-92
2022/11/26 07:22:36;;;;;;;;;;;5.50;99.90;;;;;;5097869;28;19908;-92
2022/11/26 07:25:03;;;;;;;;;;;5.50;99.90;;;;;;5097408;28;19947;-90
2022/11/26 07:27:29;;;;;;;;;;;5.60;99.90;;;;;;5097624;28;19975;-92
2022/11/26 07:29:56;;;;;;;;;;;5.60;99.90;;;;;;5097673;28;19981;-93
2022/11/26 07:32:23;;;;;;;;;;;5.50;99.90;;;;;;5097785;28;19932;-92
2022/11/26 07:34:50;;;;;;;;;;;5.50;99.90;;;;;;5096563;28;19912;-92
2022/11/26 07:37:17;;;;;;;;;;;5.50;99.90;;;;;;5097675;28;19943;-93
2022/11/26 07:39:45;;;;;;;;;;;5.50;99.90;;;;;;5097874;28;19935;-92
2022/11/26 07:42:12;;;;;;;;;;;5.50;99.90;;;;;;5097446;28;19908;-92
2022/11/26 07:44:39;;;;;;;;;;;6.00;99.90;;;;;;5097517;28;19912;-93
2022/11/26 07:47:09;;;;;;;;;;;5.10;99.90;;;;;;5097827;28;19935;-92
2022/11/26 07:49:35;;;;;;;;;;;5.50;99.90;;;;;;5096808;28;19908;-93
2022/11/26 07:52:02;;;;;;;;;;;5.50;99.90;;;;;;5097662;28;19924;-92
2022/11/26 07:54:29;;;;;;;;;;;5.50;99.90;;;;;;5097329;28;19939;-92
2022/11/26 07:56:57;;;;;;;;;;;5.50;99.90;;;;;;5097548;28;19944;-91
2022/11/26 07:59:27;;;;;;;;;;;5.70;99.90;;;;;;5097867;28;19908;-92
2022/11/26 08:01:53;;;;;;;;;;;5.60;99.90;;;;;;5097309;28;19940;-92
2022/11/26 08:04:21;;;;;;;;;;;5.60;99.90;;;;;;5096695;28;19913;-93
2022/11/26 08:06:48;;;;;;;;;;;5.60;99.90;;;;;;5100020;28;19919;-92
2022/11/26 08:09:18;;;;;;;;;;;5.30;99.90;;;;;;5088577;28;19920;-94
2022/11/26 08:11:47;;;;;;;;;;;6.00;99.90;;;;;;5097312;28;19913;-93
2022/11/26 08:14:21;;;;;;;;;;;5.60;99.90;;;;;;5093478;28;19913;-93
2022/11/26 08:16:51;;;;;;;;;;;5.70;99.90;;;;;;5094161;28;19948;-91
2022/11/26 08:19:18;;;;;;;;;;;5.80;99.90;;;;;;5097475;28;19931;-92
2022/11/26 08:21:54;;;;;;;;;;;6.30;99.90;;;;;;5100891;28;20140;-93
2022/11/26 08:24:22;;;;;;;;;;;6.10;99.90;;;;;;5100763;28;19931;-92
2022/11/26 08:26:52;;;;;;;;;;;5.90;99.90;;;;;;5100568;28;19939;-92
2022/11/26 08:29:22;;;;;;;;;;;5.90;99.90;;;;;;5100663;28;19921;-93
2022/11/26 08:31:49;;;;;;;;;;;6.00;99.90;;;;;;5098301;28;19921;-92
2022/11/26 08:34:16;;;;;;;;;;;7.60;99.90;;;;;;5111921;28;19932;-92
2022/11/26 08:36:43;;;;;;;;;;;6.10;99.90;;;;;;5093528;28;19916;-91
2022/11/26 08:39:14;;;;;;;;;;;6.00;99.90;;;;;;5107790;28;19913;-94
2022/11/26 08:41:40;;;;;;;;;;;6.00;99.90;;;;;;5108653;28;19921;-93
2022/11/26 08:44:07;;;;;;;;;;;6.20;99.90;;;;;;5088235;28;19929;-91
2022/11/26 08:46:35;;;;;;;;;;;6.00;99.90;;;;;;5091256;28;19967;-92
2022/11/26 08:49:02;;;;;;;;;;;6.00;99.90;;;;;;5090712;28;19948;-91
2022/11/26 08:51:29;;;;;;;;;;;6.10;99.90;;;;;;5082702;28;19913;-91
2022/11/26 08:53:56;;;;;;;;;;;6.10;99.90;;;;;;5097522;28;19935;-91
2022/11/26 08:56:23;;;;;;;;;;;6.10;99.90;;;;;;5098844;28;19928;-91
2022/11/26 08:58:50;;;;;;;;;;;6.10;99.90;;;;;;5099282;28;19908;-91
2022/11/26 09:01:20;;;;;;;;;;;6.10;99.90;;;;;;5099242;28;19928;-92
2022/11/26 09:03:52;;;;;;;;;;;6.10;99.90;;;;;;5098262;28;19951;-94
2022/11/26 09:09:12;;;;;;;;;;;6.10;99.90;;;;;;5098419;28;19908;-93
2022/11/26 09:11:40;;;;;;;;;;;6.10;99.90;;;;;;5099575;28;19916;-93
2022/11/26 09:14:07;;;;;;;;;;;6.10;99.90;;;;;;5099293;28;20094;-93
2022/11/26 09:16:34;;;;;;;;;;;6.20;99.90;;;;;;5099127;28;19920;-91
2022/11/26 09:19:06;;;;;;;;;;;6.40;99.90;;;;;;5098630;28;19928;-93
2022/11/26 09:21:34;;;;;;;;;;;6.20;99.90;;;;;;5099162;28;19913;-92
2022/11/26 09:24:01;;;;;;;;;;;7.50;99.90;;;;;;5099093;28;20124;-91
2022/11/26 09:26:29;;;;;;;;;;;6.20;99.90;;;;;;5098827;28;19912;-92
2022/11/26 09:28:56;;;;;;;;;;;6.20;99.90;;;;;;5098934;28;19909;-91
2022/11/26 09:31:23;;;;;;;;;;;6.20;99.90;;;;;;5098206;28;19912;-93
2022/11/26 09:33:52;;;;;;;;;;;6.20;99.90;;;;;;5097516;28;19928;-93
2022/11/26 09:36:21;;;;;;;;;;;6.10;99.90;;;;;;5098731;28;19913;-93
2022/11/26 09:38:47;;;;;;;;;;;6.60;99.90;;;;;;5099019;28;19940;-93
2022/11/26 09:41:26;;;;;;;;;;;6.20;99.90;;;;;;5098761;28;19923;-92
2022/11/26 09:44:17;;;;;;;;;;;6.20;99.90;;;;;;5098632;28;19912;-93
2022/11/26 09:46:49;;;;;;;;;;;6.30;99.90;;;;;;5082644;28;19912;-93
2022/11/26 09:49:17;;;;;;;;;;;6.20;99.90;;;;;;5097597;28;19912;-94
2022/11/26 09:51:47;;;;;;;;;;;6.30;99.90;;;;;;5093043;28;19912;-93
2022/11/26 09:54:16;;;;;;;;;;;6.90;99.90;;;;;;5112057;28;20131;-94
2022/11/26 09:56:43;;;;;;;;;;;6.60;99.90;;;;;;5098224;28;19921;-93
2022/11/26 09:59:12;;;;;;;;;;;6.30;99.90;;;;;;5097355;28;19912;-93
2022/11/26 10:01:40;;;;;;;;;;;6.80;99.90;;;;;;5097264;28;19925;-94
2022/11/26 10:04:07;;;;;;;;;;;6.30;99.90;;;;;;5097465;28;19908;-94
2022/11/26 10:06:42;;;;;;;;;;;6.30;99.90;;;;;;5097589;28;19943;-93
2022/11/26 10:09:18;;;;;;;;;;;6.40;99.90;;;;;;5096853;28;19932;-93
2022/11/26 10:11:51;;;;;;;;;;;6.40;99.90;;;;;;5096380;28;19912;-94
2022/11/26 10:14:25;;;;;;;;;;;6.40;99.90;;;;;;5089565;28;19925;-94
2022/11/26 10:17:01;;;;;;;;;;;6.40;99.90;;;;;;5097862;28;19908;-93
2022/11/26 10:19:33;;;;;;;;;;;6.40;99.90;;;;;;5097047;28;19988;-94
2022/11/26 10:22:03;;;;;;;;;;;7.30;99.90;;;;;;5097749;28;19991;-94
2022/11/26 10:24:33;;;;;;;;;;;6.40;99.90;;;;;;5102398;28;19915;-94
2022/11/26 10:27:01;;;;;;;;;;;6.40;99.90;;;;;;5103367;28;19928;-94
2022/11/26 10:29:31;;;;;;;;;;;6.60;99.90;;;;;;5098843;28;19927;-93
2022/11/26 10:32:06;;;;;;;;;;;6.50;99.90;;;;;;5107122;28;19932;-93
2022/11/26 10:34:41;;;;;;;;;;;6.40;99.90;;;;;;5111501;28;19971;-93
2022/11/26 10:37:08;;;;;;;;;;;6.50;99.90;;;;;;5115274;28;19908;-92
2022/11/26 10:39:36;;;;;;;;;;;6.50;99.90;;;;;;5097930;28;19928;-94
2022/11/26 10:42:13;;;;;;;;;;;6.50;99.90;;;;;;5105508;28;19919;-93
2022/11/26 10:44:49;;;;;;;;;;;6.60;99.90;;;;;;5104560;28;19996;-93
2022/11/26 10:47:20;;;;;;;;;;;6.50;99.90;;;;;;5097093;28;19920;-93
2022/11/26 10:49:47;;;;;;;;;;;6.50;99.90;;;;;;5088556;28;19950;-93
2022/11/26 10:52:16;;;;;;;;;;;6.60;99.90;;;;;;5109431;28;19942;-93
2022/11/26 10:54:44;;;;;;;;;;;6.60;99.90;;;;;;5095824;28;19912;-93
2022/11/26 10:57:14;;;;;;;;;;;6.60;99.90;;;;;;5107249;28;19987;-92
2022/11/26 10:59:44;;;;;;;;;;;6.70;99.90;;;;;;5108212;28;19912;-92
2022/11/26 11:02:22;;;;;;;;;;;6.70;99.90;;;;;;5098926;28;20109;-93
2022/11/26 11:04:50;;;;;;;;;;;6.70;99.90;;;;;;5099412;28;19920;-93
2022/11/26 11:07:28;;;;;;;;;;;6.70;99.90;;;;;;5096285;28;19909;-96
2022/11/26 11:10:03;;;;;;;;;;;6.80;99.90;;;;;;5097050;28;19920;-95
2022/11/26 11:12:30;;;;;;;;;;;6.70;99.90;;;;;;5101983;28;19912;-94
2022/11/26 11:15:12;;;;;;;;;;;7.20;99.90;;;;;;5107261;28;19938;-95
2022/11/26 11:17:40;;;;;;;;;;;7.90;99.90;;;;;;5111158;28;19924;-96
2022/11/26 11:20:22;;;;;;;;;;;6.80;99.90;;;;;;5081846;28;19983;-95
2022/11/26 11:22:56;;;;;;;;;;;6.90;99.90;;;;;;5098373;28;19932;-95
2022/11/26 11:25:26;;;;;;;;;;;8.30;99.90;;;;;;5102701;28;19912;-95
2022/11/26 11:27:54;;;;;;;;;;;7.00;99.90;;;;;;5113021;28;19912;-95
2022/11/26 11:30:25;;;;;;;;;;;6.90;99.90;;;;;;5094712;28;19962;-95
2022/11/26 11:32:57;;;;;;;;;;;7.00;99.90;;;;;;5094809;28;19924;-93
2022/11/26 11:35:25;;;;;;;;;;;8.10;99.90;;;;;;5080857;28;19939;-93
2022/11/26 11:37:52;;;;;;;;;;;7.10;99.90;;;;;;5092327;28;19995;-94
2022/11/26 11:40:24;;;;;;;;;;;7.10;99.90;;;;;;5096215;28;19947;-93
2022/11/26 11:42:54;;;;;;;;;;;8.00;99.90;;;;;;5107991;28;20107;-93
2022/11/26 11:45:22;;;;;;;;;;;7.00;99.90;;;;;;5104745;28;19926;-93
2022/11/26 11:47:51;;;;;;;;;;;7.10;99.90;;;;;;5104516;28;19928;-92
2022/11/26 11:50:20;;;;;;;;;;;7.10;99.90;;;;;;5084753;28;19920;-93
2022/11/26 11:53:01;;;;;;;;;;;7.60;99.90;;;;;;5101607;28;19912;-94
2022/11/26 11:55:36;;;;;;;;;;;7.20;99.90;;;;;;5101936;28;19992;-91
2022/11/26 11:58:15;;;;;;;;;;;7.30;99.90;;;;;;5097994;28;19948;-91
2022/11/26 12:00:46;;;;;;;;;;;7.40;99.90;;;;;;5112777;28;19944;-91
2022/11/26 12:03:22;;;;;;;;;;;8.50;99.90;;;;;;5110778;28;19927;-91
2022/11/26 12:05:55;;;;;;;;;;;7.30;99.90;;;;;;5095415;28;19971;-93
2022/11/26 12:08:28;;;;;;;;;;;7.30;99.90;;;;;;5097835;28;19928;-91
2022/11/26 12:11:01;;;;;;;;;;;8.50;99.90;;;;;;5109592;28;19912;-94
2022/11/26 12:13:31;;;;;;;;;;;8.20;99.90;;;;;;5097543;28;19940;-91
2022/11/26 12:16:01;;;;;;;;;;;8.50;99.90;;;;;;5084554;28;19929;-93
2022/11/26 12:18:31;;;;;;;;;;;7.40;99.90;;;;;;5104920;28;19928;-91
2022/11/26 12:21:01;;;;;;;;;;;7.40;99.90;;;;;;5089861;28;19928;-91
2022/11/26 12:23:32;;;;;;;;;;;7.40;99.90;;;;;;5108443;28;19948;-92
2022/11/26 12:26:05;;;;;;;;;;;7.50;99.90;;;;;;5095696;28;19963;-92
2022/11/26 12:28:34;;;;;;;;;;;7.40;99.90;;;;;;5098867;28;19928;-91
2022/11/26 12:31:02;;;;;;;;;;;7.40;99.90;;;;;;5101925;28;19921;-92
2022/11/26 12:33:32;;;;;;;;;;;7.40;99.90;;;;;;5088759;28;19935;-91
2022/11/26 12:36:01;;;;;;;;;;;7.50;99.90;;;;;;5088164;28;19952;-91
2022/11/26 12:38:31;;;;;;;;;;;7.50;99.90;;;;;;5094623;28;19928;-90
2022/11/26 12:41:00;;;;;;;;;;;7.60;99.90;;;;;;5091447;28;19936;-92
2022/11/26 12:43:29;;;;;;;;;;;7.70;99.90;;;;;;5095179;28;20015;-90
2022/11/26 12:46:00;;;;;;;;;;;7.70;99.90;;;;;;5089306;28;19928;-92
2022/11/26 12:48:31;;;;;;;;;;;7.70;99.90;;;;;;5089586;28;19920;-92
2022/11/26 12:50:59;;;;;;;;;;;7.70;99.90;;;;;;5088345;28;19928;-90
2022/11/26 12:53:32;;;;;;;;;;;7.70;99.90;;;;;;5090741;28;19956;-92
2022/11/26 12:56:05;;;;;;;;;;;7.70;99.90;;;;;;5099406;28;19920;-92
2022/11/26 12:58:36;;;;;;;;;;;7.60;99.90;;;;;;5092999;28;19944;-93
2022/11/26 13:01:04;;;;;;;;;;;7.60;99.90;;;;;;5093571;28;19933;-91
2022/11/26 13:03:32;;;;;;;;;;;7.60;99.90;;;;;;5099881;28;19920;-91
2022/11/26 13:06:02;;;;;;;;;;;7.50;99.90;;;;;;5088317;28;19921;-90
2022/11/26 13:08:38;;;;;;;;;;;7.50;99.90;;;;;;5092827;28;19955;-93
2022/11/26 13:11:10;;;;;;;;;;;7.50;99.90;;;;;;5092108;28;19940;-89
2022/11/26 13:13:41;;;;;;;;;;;7.50;99.90;;;;;;5091274;28;19980;-90
2022/11/26 13:16:13;;;;;;;;;;;7.50;99.90;;;;;;5090641;28;19920;-91
2022/11/26 13:18:43;;;;;;;;;;;7.50;99.90;;;;;;5099320;28;20237;-92
2022/11/26 13:21:20;;;;;;;;;;;7.40;99.90;;;;;;5093562;28;20219;-91
2022/11/26 13:23:57;;;;;;;;;;;7.40;99.90;;;;;;5109759;28;19927;-91
2022/11/26 13:26:30;;;;;;;;;;;7.40;99.90;;;;;;5084109;28;19927;-90
2022/11/26 13:29:07;;;;;;;;;;;7.40;99.90;;;;;;5092925;28;20127;-89
2022/11/26 13:31:49;;;;;;;;;;;7.50;99.90;;;;;;5093595;28;19942;-90
2022/11/26 13:34:28;;;;;;;;;;;7.50;99.90;;;;;;5093350;28;19921;-90
2022/11/26 13:37:16;;;;;;;;;;;7.50;99.90;;;;;;5096278;28;19921;-90
2022/11/26 13:39:53;;;;;;;;;;;7.50;99.90;;;;;;5089207;28;19951;-91
2022/11/26 13:42:28;;;;;;;;;;;7.60;99.90;;;;;;5085282;28;19947;-91
2022/11/26 13:45:02;;;;;;;;;;;7.60;99.90;;;;;;5094177;28;19921;-91
2022/11/26 13:47:33;;;;;;;;;;;7.50;99.90;;;;;;5087182;28;19927;-91
2022/11/26 13:50:01;;;;;;;;;;;7.50;99.90;;;;;;5109343;28;19916;-90
2022/11/26 13:52:30;;;;;;;;;;;7.50;99.90;;;;;;5092465;28;19927;-91
2022/11/26 13:55:00;;;;;;;;;;;7.50;99.90;;;;;;5111026;28;19943;-90
2022/11/26 13:57:30;;;;;;;;;;;7.50;99.90;;;;;;5106205;28;19951;-91
2022/11/26 13:59:57;;;;;;;;;;;7.40;99.90;;;;;;5097348;28;19932;-90
2022/11/26 14:02:41;;;;;;;;;;;7.50;99.90;;;;;;5107935;28;19927;-90
2022/11/26 14:05:09;;;;;;;;;;;7.50;99.90;;;;;;5096184;28;19920;-93
2022/11/26 14:07:36;;;;;;;;;;;7.50;99.90;;;;;;5087393;28;19920;-91
2022/11/26 14:10:04;;;;;;;;;;;7.60;99.90;;;;;;5110884;28;19920;-92
2022/11/26 14:12:50;;;;;;;;;;;7.50;99.90;;;;;;5087650;28;19959;-92
2022/11/26 14:15:32;;;;;;;;;;;7.70;99.90;;;;;;5096401;28;19921;-93
2022/11/26 14:18:00;;;;;;;;;;;7.70;99.90;;;;;;5087119;28;20022;-91
2022/11/26 14:20:27;;;;;;;;;;;7.80;99.90;;;;;;5087215;28;19927;-92
2022/11/26 14:22:54;;;;;;;;;;;7.80;99.90;;;;;;5090124;28;20262;-92
2022/11/26 14:25:37;;;;;;;;;;;7.00;99.90;;;;;;5090834;28;19920;-92
2022/11/26 14:28:09;;;;;;;;;;;7.80;99.90;;;;;;5090286;28;19920;-92
2022/11/26 14:30:38;;;;;;;;;;;7.60;99.90;;;;;;5090955;28;22083;-91
2022/11/26 14:33:14;;;;;;;;;;;8.70;99.90;;;;;;5089108;28;19966;-91
2022/11/26 14:35:41;;;;;;;;;;;7.40;99.90;;;;;;5091702;28;20234;-91
2022/11/26 14:38:22;;;;;;;;;;;7.50;99.90;;;;;;5074446;28;19921;-92
2022/11/26 14:40:56;;;;;;;;;;;7.60;99.90;;;;;;5083294;28;19935;-91
2022/11/26 14:43:23;;;;;;;;;;;7.50;99.90;;;;;;5094747;28;19943;-92
2022/11/26 14:46:00;;;;;;;;;;;7.50;99.90;;;;;;5095989;28;19924;-90